createdAt,value
2023-05-25T03:00:37.776Z,100632.61
2023-05-25T03:03:06.041Z,100635.95
2023-05-25T03:05:35.476Z,100641.13
2023-05-25T03:08:03.772Z,100638.52
2023-05-25T03:10:32.222Z,100640.61
2023-05-25T03:13:00.051Z,100638.21
2023-05-25T03:15:27.217Z,100632.86
2023-05-25T03:17:56.926Z,100641.65
2023-05-25T03:20:26.520Z,100641.60
2023-05-25T03:22:55.337Z,100649.38
2023-05-25T03:25:23.346Z,100646.61
2023-05-25T03:27:54.273Z,100649.17
2023-05-25T03:30:22.477Z,100654.95
2023-05-25T03:32:51.006Z,100661.91
2023-05-25T03:35:19.665Z,100662.25
2023-05-25T03:37:46.931Z,100663.83
2023-05-25T03:40:14.676Z,100664.17
2023-05-25T03:42:42.451Z,100665.38
2023-05-25T03:45:10.900Z,100667.14
2023-05-25T03:47:40.498Z,100665.79
2023-05-25T03:50:08.690Z,100666.25
2023-05-25T03:52:36.751Z,100669.77
2023-05-25T03:55:04.701Z,100664.52
2023-05-25T03:57:32.066Z,100665.92
2023-05-25T03:59:59.373Z,100669.44
2023-05-25T04:02:27.142Z,100672.07
2023-05-25T04:04:57.190Z,100679.22
2023-05-25T04:07:31.144Z,100680.06
2023-05-25T04:09:59.883Z,100683.17
2023-05-25T04:12:28.089Z,100697.48
2023-05-25T04:14:56.551Z,100699.80
2023-05-25T04:17:26.515Z,100707.64
2023-05-25T04:19:54.326Z,100711.20
2023-05-25T04:22:23.822Z,100707.91
2023-05-25T04:24:50.887Z,100705.25
2023-05-25T04:27:20.445Z,100705.50
2023-05-25T04:29:50.122Z,100702.52
2023-05-25T04:32:45.668Z,100702.72
2023-05-25T04:35:34.229Z,100700.54
2023-05-25T04:38:03.170Z,100697.45
2023-05-25T04:40:32.913Z,100698.52
2023-05-25T04:43:01.925Z,100693.73
2023-05-25T04:45:32.338Z,100698.97
2023-05-25T04:48:01.919Z,100701.06
2023-05-25T04:50:30.258Z,100704.14
2023-05-25T04:52:57.351Z,100703.89
2023-05-25T04:55:25.520Z,100699.08
2023-05-25T04:57:54.947Z,100694.23
2023-05-25T05:00:25.015Z,100691.76
2023-05-25T05:02:58.884Z,100690.48
2023-05-25T05:05:26.830Z,100686.72
2023-05-25T05:07:56.347Z,100692.27
2023-05-25T05:10:24.344Z,100692.80
2023-05-25T05:12:57.126Z,100692.27
2023-05-25T05:15:25.125Z,100692.27
2023-05-25T05:17:54.299Z,100688.05
2023-05-25T05:20:22.888Z,100690.30
2023-05-25T05:22:52.950Z,100688.01
2023-05-25T05:25:21.100Z,100686.57
2023-05-25T05:27:48.310Z,100682.05
2023-05-25T05:30:23.353Z,100681.96
2023-05-25T05:32:50.647Z,100678.50
2023-05-25T05:35:19.575Z,100677.60
2023-05-25T05:37:48.000Z,100680.85
2023-05-25T05:40:16.038Z,100676.94
2023-05-25T05:42:43.919Z,100677.00
2023-05-25T05:45:13.428Z,100676.19
2023-05-25T05:47:41.597Z,100677.31
2023-05-25T05:50:10.745Z,100679.98
2023-05-25T05:52:40.048Z,100672.41
2023-05-25T05:55:08.607Z,100673.20
2023-05-25T05:57:38.731Z,100670.02
2023-05-25T06:00:07.384Z,100669.86
2023-05-25T06:02:43.280Z,100665.48
2023-05-25T06:05:13.585Z,100669.21
2023-05-25T06:07:42.980Z,100669.75
2023-05-25T06:10:10.929Z,100671.05
2023-05-25T06:12:38.674Z,100676.52
2023-05-25T06:15:07.450Z,100680.26
2023-05-25T06:17:37.581Z,100682.93
2023-05-25T06:20:06.627Z,100684.67
2023-05-25T06:22:34.452Z,100685.71
2023-05-25T06:25:02.327Z,100689.85
2023-05-25T06:27:29.777Z,100687.08
2023-05-25T06:29:57.656Z,100690.89
2023-05-25T06:32:25.653Z,100692.13
2023-05-25T06:34:55.542Z,100690.02
2023-05-25T06:37:23.857Z,100690.29
2023-05-25T06:39:51.861Z,100694.21
2023-05-25T06:42:19.859Z,100692.43
2023-05-25T06:44:54.038Z,100691.64
2023-05-25T06:47:21.579Z,100692.20
2023-05-25T06:49:50.063Z,100692.67
2023-05-25T06:52:17.747Z,100691.02
2023-05-25T06:54:45.588Z,100693.30
2023-05-25T06:57:13.490Z,100687.95
2023-05-25T06:59:41.309Z,100690.17
2023-05-25T07:02:09.137Z,100692.09
2023-05-25T07:04:37.378Z,100697.52
2023-05-25T07:07:05.501Z,100700.33
2023-05-25T07:09:33.522Z,100702.21
2023-05-25T07:12:01.166Z,100707.95
2023-05-25T07:14:28.876Z,100710.13
2023-05-25T07:16:57.002Z,100716.73
2023-05-25T07:19:24.925Z,100719.10
2023-05-25T07:21:52.681Z,100720.80
2023-05-25T07:24:20.817Z,100722.46
2023-05-25T07:26:49.546Z,100727.77
2023-05-25T07:29:17.851Z,100726.73
2023-05-25T07:31:46.137Z,100727.84
2023-05-25T07:34:13.901Z,100726.29
2023-05-25T07:36:41.634Z,100719.61
2023-05-25T07:39:11.225Z,100712.14
2023-05-25T07:41:39.367Z,100714.73
2023-05-25T07:44:06.812Z,100714.27
2023-05-25T07:46:34.616Z,100720.24
2023-05-25T07:49:04.835Z,100715.94
2023-05-25T07:51:33.610Z,100712.06
2023-05-25T07:54:01.517Z,100709.11
2023-05-25T07:56:29.502Z,100707.87
2023-05-25T07:58:57.637Z,100705.64
2023-05-25T08:01:26.961Z,100699.84
2023-05-25T08:03:54.663Z,100696.52
2023-05-25T08:06:21.996Z,100697.19
2023-05-25T08:08:50.610Z,100696.00
2023-05-25T08:11:17.754Z,100701.70
2023-05-25T08:13:45.754Z,100703.20
2023-05-25T08:16:13.416Z,100708.26
2023-05-25T08:18:44.109Z,100706.82
2023-05-25T08:21:12.021Z,100711.20
2023-05-25T08:23:43.087Z,100710.83
2023-05-25T08:26:31.195Z,100712.15
2023-05-25T08:29:01.114Z,100715.58
2023-05-25T08:31:29.354Z,100719.66
2023-05-25T08:33:57.368Z,100720.98
2023-05-25T08:36:26.149Z,100727.97
2023-05-25T08:38:54.160Z,100727.67
2023-05-25T08:41:22.828Z,100728.72
2023-05-25T08:43:50.288Z,100730.86
2023-05-25T08:46:24.618Z,100727.02
2023-05-25T08:48:52.799Z,100731.32
2023-05-25T08:51:20.628Z,100731.60
2023-05-25T08:53:47.736Z,100726.80
2023-05-25T08:56:26.528Z,100726.64
2023-05-25T08:59:04.808Z,100732.16
2023-05-25T09:01:36.410Z,100730.55
2023-05-25T09:04:03.566Z,100729.30
2023-05-25T09:06:30.633Z,100728.10
2023-05-25T09:08:57.872Z,100731.06
2023-05-25T09:11:37.259Z,100727.20
2023-05-25T09:14:07.224Z,100727.94
2023-05-25T09:16:36.793Z,100728.44
2023-05-25T09:19:04.623Z,100729.52
2023-05-25T09:21:31.786Z,100731.71
2023-05-25T09:24:00.233Z,100730.54
2023-05-25T09:26:28.236Z,100730.20
2023-05-25T09:28:55.786Z,100732.05
2023-05-25T09:31:24.613Z,100733.89
2023-05-25T09:33:55.079Z,100738.06
2023-05-25T09:36:22.974Z,100735.06
2023-05-25T09:38:52.595Z,100736.89
2023-05-25T09:41:21.208Z,100737.38
2023-05-25T09:44:02.104Z,100741.79
2023-05-25T09:46:38.886Z,100743.91
2023-05-25T09:49:08.093Z,100743.71
2023-05-25T09:51:36.255Z,100744.61
2023-05-25T09:54:04.550Z,100744.38
2023-05-25T09:56:33.166Z,100741.66
2023-05-25T09:59:01.284Z,100743.37
2023-05-25T10:01:28.705Z,100741.41
2023-05-25T10:04:04.328Z,100744.17
2023-05-25T10:06:33.995Z,100742.92
2023-05-25T10:09:02.357Z,100746.56
2023-05-25T10:11:30.783Z,100744.32
2023-05-25T10:14:03.933Z,100749.94
2023-05-25T10:16:33.671Z,100753.27
2023-05-25T10:19:06.515Z,100753.04
2023-05-25T10:21:37.045Z,100748.77
2023-05-25T10:24:06.465Z,100747.33
2023-05-25T10:26:39.966Z,100749.39
2023-05-25T10:29:09.201Z,100752.84
2023-05-25T10:31:38.688Z,100751.73
2023-05-25T10:34:06.060Z,100751.98
2023-05-25T10:36:43.208Z,100746.67
2023-05-25T10:39:11.827Z,100751.34
2023-05-25T10:41:39.685Z,100750.13
2023-05-25T10:44:08.262Z,100749.75
2023-05-25T10:46:36.476Z,100749.50
2023-05-25T10:49:04.017Z,100748.99
2023-05-25T10:51:38.983Z,100742.88
2023-05-25T10:54:07.100Z,100740.41
2023-05-25T10:56:34.429Z,100744.55
2023-05-25T10:59:02.595Z,100739.91
2023-05-25T11:01:33.151Z,100742.00
2023-05-25T11:04:21.277Z,100744.22
2023-05-25T11:06:49.096Z,100749.40
2023-05-25T11:09:26.747Z,100747.63
2023-05-25T11:11:55.957Z,100739.30
2023-05-25T11:14:29.668Z,100736.84
2023-05-25T11:17:18.444Z,100733.73
2023-05-25T11:19:54.140Z,100734.39
2023-05-25T11:22:22.847Z,100730.30
2023-05-25T11:24:51.875Z,100723.37
2023-05-25T11:27:27.197Z,100724.77
2023-05-25T11:29:57.763Z,100727.34
2023-05-25T11:32:26.521Z,100724.00
2023-05-25T11:34:55.209Z,100723.40
2023-05-25T11:37:28.915Z,100722.73
2023-05-25T11:39:57.866Z,100720.63
2023-05-25T11:42:26.388Z,100718.25
2023-05-25T11:44:55.681Z,100715.80
2023-05-25T11:47:25.363Z,100716.42
2023-05-25T11:49:55.535Z,100716.30
2023-05-25T11:52:23.332Z,100725.54
2023-05-25T11:54:53.500Z,100722.50
2023-05-25T11:57:24.726Z,100718.69
2023-05-25T11:59:53.580Z,100721.42
2023-05-25T12:02:21.887Z,100723.61
2023-05-25T12:04:53.664Z,100714.72
2023-05-25T12:07:21.432Z,100712.48
2023-05-25T12:09:48.942Z,100718.65
2023-05-25T12:12:16.531Z,100715.50
2023-05-25T12:14:47.437Z,100717.55
2023-05-25T12:17:16.395Z,100719.48
2023-05-25T12:19:44.941Z,100720.04
2023-05-25T12:22:14.069Z,100718.70
2023-05-25T12:24:41.826Z,100718.27
2023-05-25T12:27:27.714Z,100717.07
2023-05-25T12:29:59.008Z,100719.39
2023-05-25T12:32:27.045Z,100720.31
2023-05-25T12:35:04.986Z,100721.71
2023-05-25T12:37:33.174Z,100715.10
2023-05-25T12:40:01.060Z,100712.83
2023-05-25T12:42:30.956Z,100711.83
2023-05-25T12:45:00.733Z,100713.67
2023-05-25T12:47:30.269Z,100711.11
2023-05-25T12:50:13.534Z,100709.98
2023-05-25T12:52:43.095Z,100711.02
2023-05-25T12:55:21.152Z,100708.92
2023-05-25T12:57:55.014Z,100705.34
2023-05-25T13:00:23.672Z,100699.16
2023-05-25T13:02:53.695Z,100697.91
2023-05-25T13:05:29.100Z,100698.43
2023-05-25T13:07:58.156Z,100688.83
2023-05-25T13:10:26.615Z,100693.12
2023-05-25T13:12:56.217Z,100689.90
2023-05-25T13:15:23.890Z,100684.34
2023-05-25T13:17:52.568Z,100685.20
2023-05-25T13:20:21.627Z,100687.35
2023-05-25T13:22:50.367Z,100690.45
2023-05-25T13:25:17.932Z,100689.70
2023-05-25T13:27:49.920Z,100690.66
2023-05-25T13:30:17.869Z,100692.87
2023-05-25T13:32:46.050Z,100687.47
2023-05-25T13:35:36.973Z,100688.96
2023-05-25T13:38:05.223Z,100680.22
2023-05-25T13:40:32.852Z,100680.95
2023-05-25T13:43:00.852Z,100683.16
2023-05-25T13:45:28.602Z,100678.08
2023-05-25T13:47:56.692Z,100676.61
2023-05-25T13:50:24.813Z,100674.14
2023-05-25T13:52:52.433Z,100671.61
2023-05-25T13:55:19.578Z,100672.47
2023-05-25T13:57:46.627Z,100677.81
2023-05-25T14:00:14.177Z,100674.91
2023-05-25T14:02:41.817Z,100676.55
2023-05-25T14:05:09.612Z,100677.23
2023-05-25T14:07:38.920Z,100672.48
2023-05-25T14:10:06.596Z,100672.66
2023-05-25T14:12:34.108Z,100674.07
2023-05-25T14:15:01.716Z,100670.34
2023-05-25T14:17:29.459Z,100672.92
2023-05-25T14:19:58.361Z,100667.25
2023-05-25T14:22:27.512Z,100664.64
2023-05-25T14:24:54.531Z,100661.95
2023-05-25T14:27:21.728Z,100663.34
2023-05-25T14:29:50.039Z,100667.17
2023-05-25T14:32:18.522Z,100665.39
2023-05-25T14:34:45.809Z,100665.52
2023-05-25T14:37:13.797Z,100665.40
2023-05-25T14:39:40.985Z,100662.83
2023-05-25T14:42:08.068Z,100658.27
2023-05-25T14:44:35.558Z,100659.25
2023-05-25T14:47:03.583Z,100656.60
2023-05-25T14:49:31.996Z,100650.98
2023-05-25T14:51:59.650Z,100652.61
2023-05-25T14:54:27.359Z,100647.59
2023-05-25T14:56:55.678Z,100647.27
2023-05-25T14:59:23.147Z,100653.80
2023-05-25T15:01:51.025Z,100649.43
2023-05-25T15:04:18.990Z,100650.84
2023-05-25T15:06:46.291Z,100647.98
2023-05-25T15:09:15.875Z,100651.67
2023-05-25T15:11:44.109Z,100651.48
2023-05-25T15:14:11.962Z,100654.51
2023-05-25T15:16:40.309Z,100651.37
2023-05-25T15:19:10.624Z,100652.41
2023-05-25T15:21:40.191Z,100651.65
2023-05-25T15:24:08.157Z,100651.79
2023-05-25T15:26:36.279Z,100651.70
2023-05-25T15:29:04.021Z,100654.63
2023-05-25T15:31:32.111Z,100650.19
2023-05-25T15:34:00.943Z,100653.36
2023-05-25T15:36:28.965Z,100655.09
2023-05-25T15:38:56.825Z,100658.12
2023-05-25T15:41:24.937Z,100652.05
2023-05-25T15:43:57.874Z,100650.05
2023-05-25T15:46:26.941Z,100648.27
2023-05-25T15:48:54.504Z,100650.79
2023-05-25T15:51:22.254Z,100645.36
2023-05-25T15:53:50.147Z,100638.30
2023-05-25T15:56:18.156Z,100640.54
2023-05-25T15:58:48.729Z,100639.66
2023-05-25T16:01:17.492Z,100640.02
2023-05-25T16:03:45.538Z,100638.16
2023-05-25T16:06:12.912Z,100638.55
2023-05-25T16:08:40.994Z,100639.77
2023-05-25T16:11:08.980Z,100637.79
2023-05-25T16:13:36.893Z,100631.05
2023-05-25T16:16:05.504Z,100629.42
2023-05-25T16:18:33.723Z,100631.66
2023-05-25T16:21:01.870Z,100630.14
2023-05-25T16:23:29.581Z,100632.11
2023-05-25T16:25:57.414Z,100642.60
2023-05-25T16:28:25.967Z,100641.48
2023-05-25T16:30:53.709Z,100642.68
2023-05-25T16:33:21.619Z,100638.33
2023-05-25T16:35:50.124Z,100639.98
2023-05-25T16:38:18.733Z,100638.47
2023-05-25T16:40:46.639Z,100637.08
2023-05-25T16:43:14.024Z,100640.70
2023-05-25T16:45:42.141Z,100636.55
2023-05-25T16:48:11.987Z,100641.02
2023-05-25T16:50:39.420Z,100644.23
2023-05-25T16:53:08.091Z,100643.27
2023-05-25T16:55:35.974Z,100645.52
2023-05-25T16:58:03.135Z,100647.83
2023-05-25T17:00:30.479Z,100651.55
2023-05-25T17:02:58.080Z,100653.50
2023-05-25T17:05:25.990Z,100656.70
2023-05-25T17:07:53.323Z,100658.33
2023-05-25T17:10:20.929Z,100659.60
2023-05-25T17:12:50.186Z,100662.95
2023-05-25T17:15:18.355Z,100662.67
2023-05-25T17:17:46.021Z,100665.45
2023-05-25T17:20:14.042Z,100666.20
2023-05-25T17:22:43.758Z,100670.73
2023-05-25T17:25:12.090Z,100677.65
2023-05-25T17:27:40.917Z,100677.66
2023-05-25T17:30:09.000Z,100683.10
2023-05-25T17:32:37.920Z,100682.84
2023-05-25T17:35:05.684Z,100685.86
2023-05-25T17:37:33.311Z,100690.13
2023-05-25T17:40:01.336Z,100692.47
2023-05-25T17:42:29.112Z,100698.84
2023-05-25T17:44:57.187Z,100697.04
2023-05-25T17:47:26.110Z,100698.79
2023-05-25T17:49:54.818Z,100702.91
2023-05-25T17:52:23.358Z,100704.89
2023-05-25T17:54:51.124Z,100706.75
2023-05-25T17:57:19.287Z,100706.66
2023-05-25T17:59:47.111Z,100709.80
2023-05-25T18:02:16.257Z,100713.58
2023-05-25T18:04:45.044Z,100714.41
2023-05-25T18:07:13.772Z,100720.64
2023-05-25T18:09:41.602Z,100723.67
2023-05-25T18:12:09.160Z,100731.34
2023-05-25T18:14:37.778Z,100732.08
2023-05-25T18:17:05.470Z,100740.53
2023-05-25T18:19:34.283Z,100742.88
2023-05-25T18:22:01.751Z,100743.34
2023-05-25T18:24:30.288Z,100744.17
2023-05-25T18:27:03.392Z,100751.45
2023-05-25T18:29:31.593Z,100754.59
2023-05-25T18:31:59.925Z,100750.23
2023-05-25T18:34:30.322Z,100752.78
2023-05-25T18:36:57.902Z,100751.91
2023-05-25T18:39:27.587Z,100756.11
2023-05-25T18:41:56.005Z,100754.46
2023-05-25T18:44:24.665Z,100758.59
2023-05-25T18:46:55.770Z,100762.29
2023-05-25T18:49:24.252Z,100765.27
2023-05-25T18:51:53.772Z,100770.36
2023-05-25T18:54:21.665Z,100772.38
2023-05-25T18:56:51.331Z,100772.69
2023-05-25T18:59:20.042Z,100770.69
2023-05-25T19:01:47.230Z,100769.73
2023-05-25T19:04:14.794Z,100766.52
2023-05-25T19:06:43.547Z,100769.06
2023-05-25T19:09:11.071Z,100772.64
2023-05-25T19:11:39.669Z,100770.65
2023-05-25T19:14:08.952Z,100767.42
2023-05-25T19:16:37.884Z,100772.70
2023-05-25T19:19:06.603Z,100773.14
2023-05-25T19:21:37.233Z,100772.44
2023-05-25T19:24:05.362Z,100773.87
2023-05-25T19:26:36.599Z,100776.19
2023-05-25T19:29:05.792Z,100770.69
2023-05-25T19:31:34.086Z,100770.24
2023-05-25T19:34:03.148Z,100769.71
2023-05-25T19:36:34.064Z,100768.45
2023-05-25T19:39:05.054Z,100773.65
2023-05-25T19:41:36.311Z,100778.48
2023-05-25T19:44:05.135Z,100773.48
2023-05-25T19:46:34.214Z,100773.27
2023-05-25T19:49:02.339Z,100775.71
2023-05-25T19:51:33.111Z,100780.16
2023-05-25T19:54:02.805Z,100782.55
2023-05-25T19:56:31.254Z,100787.81
2023-05-25T19:59:00.294Z,100795.11
2023-05-25T20:01:28.129Z,100797.13
2023-05-25T20:03:57.974Z,100803.96
2023-05-25T20:06:25.358Z,100805.89
2023-05-25T20:08:53.004Z,100811.21
2023-05-25T20:11:22.964Z,100811.76
2023-05-25T20:13:51.322Z,100813.35
2023-05-25T20:16:18.410Z,100814.02
2023-05-25T20:18:45.534Z,100813.32
2023-05-25T20:21:13.131Z,100814.77
2023-05-25T20:23:40.816Z,100813.99
2023-05-25T20:26:08.941Z,100818.59
2023-05-25T20:28:38.374Z,100821.91
2023-05-25T20:31:06.194Z,100824.27
2023-05-25T20:33:33.918Z,100827.46
2023-05-25T20:36:01.776Z,100825.27
2023-05-25T20:38:29.383Z,100826.05
2023-05-25T20:40:58.584Z,100823.48
2023-05-25T20:43:28.313Z,100827.17
2023-05-25T20:45:56.007Z,100824.95
2023-05-25T20:48:25.099Z,100831.04
2023-05-25T20:50:54.665Z,100828.14
2023-05-25T20:53:23.607Z,100829.03
2023-05-25T20:55:52.606Z,100831.84
2023-05-25T20:58:20.689Z,100831.22
2023-05-25T21:00:52.303Z,100828.77
2023-05-25T21:03:19.502Z,100834.85
2023-05-25T21:05:47.279Z,100835.92
2023-05-25T21:08:15.056Z,100836.19
2023-05-25T21:10:43.757Z,100831.60
2023-05-25T21:13:17.950Z,100828.66
2023-05-25T21:15:53.755Z,100826.19
2023-05-25T21:18:24.393Z,100830.80
2023-05-25T21:20:58.988Z,100832.62
2023-05-25T21:23:29.835Z,100832.83
2023-05-25T21:25:59.765Z,100834.60
2023-05-25T21:28:30.683Z,100836.40
2023-05-25T21:31:05.230Z,100840.13
2023-05-25T21:33:36.753Z,100840.05
2023-05-25T21:36:08.152Z,100838.49
2023-05-25T21:38:41.416Z,100837.65
2023-05-25T21:41:11.152Z,100838.96
2023-05-25T21:43:38.705Z,100839.83
2023-05-25T21:46:06.950Z,100838.42
2023-05-25T21:48:35.863Z,100841.60
2023-05-25T21:51:03.883Z,100838.43
2023-05-25T21:53:31.699Z,100834.53
2023-05-25T21:55:59.705Z,100831.66
2023-05-25T21:58:27.714Z,100835.70
2023-05-25T22:00:56.188Z,100838.41
2023-05-25T22:03:23.876Z,100835.71
2023-05-25T22:05:52.100Z,100833.00
2023-05-25T22:08:19.526Z,100834.45
2023-05-25T22:10:47.146Z,100827.03
2023-05-25T22:13:14.939Z,100827.45
2023-05-25T22:15:44.112Z,100832.55
2023-05-25T22:18:11.635Z,100834.36
2023-05-25T22:20:41.634Z,100835.89
2023-05-25T22:23:11.313Z,100835.71
2023-05-25T22:25:38.531Z,100837.02
2023-05-25T22:28:08.869Z,100834.36
2023-05-25T22:30:38.863Z,100837.27
2023-05-25T22:33:11.558Z,100838.84
2023-05-25T22:36:09.910Z,100840.12
2023-05-25T22:38:39.172Z,100844.83
2023-05-25T22:41:09.090Z,100846.67
2023-05-25T22:43:39.395Z,100851.71
2023-05-25T22:46:14.235Z,100854.52
2023-05-25T22:48:43.161Z,100852.96
2023-05-25T22:51:12.689Z,100853.64
2023-05-25T22:53:41.114Z,100852.77
2023-05-25T22:56:09.321Z,100853.98
2023-05-25T22:58:37.060Z,100850.73
2023-05-25T23:01:05.844Z,100848.20
2023-05-25T23:03:34.337Z,100843.80
2023-05-25T23:06:05.346Z,100838.17
2023-05-25T23:08:33.359Z,100833.19
2023-05-25T23:11:01.721Z,100837.08
2023-05-25T23:13:30.424Z,100839.10
2023-05-25T23:15:59.403Z,100845.29
2023-05-25T23:18:27.472Z,100845.23
2023-05-25T23:20:57.782Z,100846.19
2023-05-25T23:23:28.357Z,100843.13
2023-05-25T23:25:58.415Z,100844.05
2023-05-25T23:28:26.405Z,100848.22
2023-05-25T23:31:01.597Z,100851.78
2023-05-25T23:33:31.789Z,100859.13
2023-05-25T23:36:01.489Z,100857.14
2023-05-25T23:38:29.223Z,100854.39
2023-05-25T23:40:59.773Z,100857.10
2023-05-25T23:43:27.717Z,100853.23
2023-05-25T23:45:55.273Z,100851.64
2023-05-25T23:48:23.119Z,100844.79
2023-05-25T23:50:50.988Z,100844.80
2023-05-25T23:53:18.752Z,100843.55
2023-05-25T23:55:46.985Z,100845.56
2023-05-25T23:58:15.667Z,100844.76
